Nearby METAR Reports

 

KAUS - Austin, Texas, USA
Distance from station: WNW 16mi, 26km
Updated: Sat, 17-Aug-2019 5:53am CDT
Few Clouds
Few Clouds
 Wind from S
Wind: S 10 mph , 17 km/h
Temperature: 81°F , 27°C
Heat Index: 87°F , 31°C
Dew Point: 75°F , 24°C
Humidity: 84%
Barometer: 29.89 inHg , 1012.2 hPa
Clouds: Few Clouds
Visibility: 10 miles , 16 km
Cloud details: Few Clouds 1800 ft
2019/08/17 10:53 KAUS 171053Z 19009KT 10SM FEW018 27/24 A2989 RMK AO2 SLP108 T02670244 $
KEDC - Austin Exec, Texas, USA
Distance from station: NNW 21mi, 34km
Updated: Sat, 17-Aug-2019 5:55am CDT
Overcast
Overcast
 Wind from S
Wind: S 7 mph , 11 km/h
Temperature: 79°F , 26°C
Dew Point: 75°F , 24°C
Humidity: 89%
Barometer: 29.91 inHg , 1012.9 hPa
Clouds: Overcast
Visibility: 10 miles , 16 km
Cloud details: Overcast 1600 ft
2019/08/17 10:55 KEDC 171055Z AUTO 19006KT 10SM OVC016 26/24 A2991 RMK AO2
 
KATT - Austin/Mabry, Texas, USA
Distance from station: NW 25mi, 39km
Updated: Sat, 17-Aug-2019 5:51am CDT
Mostly cloudy
Mostly cloudy
 Wind from varies
Wind: varies 7 mph , 11 km/h
Temperature: 81°F , 27°C
Heat Index: 86°F , 30°C
Dew Point: 73°F , 23°C
Humidity: 79%
Barometer: 29.91 inHg , 1012.9 hPa
Clouds: Mostly cloudy
Visibility: 10 miles , 16 km
Cloud details: Mostly cloudy 1600 ft
2019/08/17 10:51 KATT 171051Z AUTO VRB06KT 10SM BKN016 27/23 A2991 RMK AO2 SLP111 T02670233
KGYB - Giddings-Lee, Texas, USA
Distance from station: E 27mi, 43km
Updated: Sat, 17-Aug-2019 5:55am CDT
Clear
Clear
 Wind from SSW
Wind: SSW 5 mph , 7 km/h
Temperature: 81°F , 27°C
Heat Index: 89°F , 32°C
Dew Point: 79°F , 26°C
Humidity: 94%
Barometer: 29.91 inHg , 1012.9 hPa
Clouds: Clear
Visibility: 10 miles , 16 km
2019/08/17 10:55 KGYB 171055Z AUTO 20004KT 10SM CLR 27/26 A2991 RMK AO2 T02710260
 
KHYI - San Marcos, Texas, USA
Distance from station: WSW 31mi, 49km
Updated: Sat, 17-Aug-2019 5:56am CDT
Overcast
Overcast
 Wind from SSW
Wind: SSW 9 mph , 15 km/h
Temperature: 81°F , 27°C
Heat Index: 87°F , 31°C
Dew Point: 75°F , 24°C
Humidity: 84%
Barometer: 29.91 inHg , 1012.9 hPa
Clouds: Overcast
Visibility: 10 miles , 16 km
Cloud details: Overcast 1400 ft
2019/08/17 10:56 KHYI 171056Z AUTO 20008KT 10SM OVC014 27/24 A2991 RMK AO2 SLP119 T02670244
K3T5 - La Grange, Texas, USA
Distance from station: ESE 32mi, 52km
Updated: Sat, 17-Aug-2019 5:55am CDT
Partly cloudy
Partly cloudy
 Wind from calm
Wind: Calm
Temperature: 79°F , 26°C
Dew Point: 79°F , 26°C
Humidity: 100%
Barometer: 29.88 inHg , 1011.9 hPa
Clouds: Partly cloudy
Visibility: 10 miles , 16 km
Cloud details: Partly cloudy 1600 ft
2019/08/17 10:55 K3T5 171055Z AUTO 00000KT 10SM SCT016 26/26 A2988 RMK AO2 T02570257
 
KT20 - Gonzales Muni, Texas, USA
Distance from station: S 41mi, 67km
Updated: Sat, 17-Aug-2019 5:55am CDT
Clear
Clear
 Wind from calm
Wind: Calm
Temperature: 79°F , 26°C
Dew Point: 79°F , 26°C
Humidity: 100%
Barometer: 29.90 inHg , 1012.5 hPa
Clouds: Clear
Visibility: 10 miles , 16 km
2019/08/17 10:55 KT20 171055Z AUTO 00000KT 10SM CLR 26/26 A2990 RMK AO2 T02570256
KRYW - Lago Vista, Texas, USA
Distance from station: NW 42mi, 67km
Updated: Sat, 17-Aug-2019 5:55am CDT
Overcast
Overcast
 Wind from S
Wind: S 7 mph , 11 km/h
Temperature: 77°F , 25°C
Dew Point: 73°F , 23°C
Humidity: 89%
Barometer: 29.93 inHg , 1013.5 hPa
Clouds: Overcast
Visibility: 10 miles , 16 km
Cloud details: Overcast 1200 ft
2019/08/17 10:55 KRYW 171055Z AUTO 19006KT 10SM OVC012 25/23 A2993 RMK AO2 T02500228
 
KGTU - Georgetown, Texas, USA
Distance from station: NNW 42mi, 68km
Updated: Sat, 17-Aug-2019 6:11am CDT
Mostly cloudy
Mostly cloudy
 Wind from S
Wind: S 12 mph , 19 km/h
Temperature: 81°F , 27°C
Heat Index: 86°F , 30°C
Dew Point: 73°F , 23°C
Humidity: 79%
Barometer: 29.92 inHg , 1013.2 hPa
Clouds: Mostly cloudy
Visibility: 10 miles , 16 km
Cloud details: Mostly cloudy 1800 ft
2019/08/17 11:11 KGTU 171111Z AUTO 19010KT 10SM BKN018 27/23 A2992 RMK AO2
KBAZ - New Braunfels, Texas, USA
Distance from station: SW 46mi, 74km
Updated: Sat, 17-Aug-2019 5:51am CDT
Mostly cloudy
Mostly cloudy
 Wind from S
Wind: S 10 mph , 17 km/h
Temperature: 81°F , 27°C
Heat Index: 87°F , 31°C
Dew Point: 75°F , 24°C
Humidity: 84%
Barometer: 29.89 inHg , 1012.2 hPa
Clouds: Mostly cloudy
Visibility: 10 miles , 16 km
Cloud details: Few Clouds 1400 ft
Mostly cloudy 2200 ft
2019/08/17 10:51 KBAZ 171051Z AUTO 19009KT 10SM FEW014 BKN022 27/24 A2989 RMK AO2 SLP112 T02670239 $